Time;durP1;ratioP1;P1;durP2;ratioP2;P2;SDS_P1;SDS_P2;PMS_P1;PMS_P2;Temp;Humidity;BMP_temperature;BMP_pressure;BME280_temperature;BME280_humidity;BME280_pressure;Samples;Min_cycle;Max_cycle;Signal;HPM_P1;HPM_P2
2023/06/25 00:00:57;;;;;;;;;;;16.60;99.90;;;;;;5119825;27;19915;-84
2023/06/25 00:03:47;;;;;;;;;;;16.50;99.90;;;;;;5102634;27;19912;-84
2023/06/25 00:06:13;;;;;;;;;;;16.50;99.90;;;;;;5136955;27;19926;-85
2023/06/25 00:08:39;;;;;;;;;;;16.50;99.90;;;;;;5119963;27;19911;-85
2023/06/25 00:11:04;;;;;;;;;;;16.60;99.90;;;;;;5119270;27;20377;-84
2023/06/25 00:13:30;;;;;;;;;;;16.60;99.90;;;;;;5118692;27;20670;-84
2023/06/25 00:15:55;;;;;;;;;;;16.70;99.90;;;;;;5137424;27;19926;-84
2023/06/25 00:18:21;;;;;;;;;;;16.70;99.90;;;;;;5118994;27;20329;-84
2023/06/25 00:20:53;;;;;;;;;;;16.60;99.90;;;;;;5119375;27;19977;-85
2023/06/25 00:23:19;;;;;;;;;;;16.60;99.90;;;;;;5119781;27;19912;-84
2023/06/25 00:25:45;;;;;;;;;;;16.60;99.90;;;;;;5102219;27;19922;-85
2023/06/25 00:28:11;;;;;;;;;;;16.60;99.90;;;;;;5101706;27;19912;-84
2023/06/25 00:30:37;;;;;;;;;;;16.60;99.90;;;;;;5101864;27;19911;-84
2023/06/25 00:33:03;;;;;;;;;;;16.70;99.90;;;;;;5119068;27;20355;-85
2023/06/25 00:35:43;;;;;;;;;;;16.60;99.90;;;;;;5118684;27;19930;-85
2023/06/25 00:38:09;;;;;;;;;;;16.60;99.90;;;;;;5137146;27;19911;-85
2023/06/25 00:40:35;;;;;;;;;;;16.50;99.90;;;;;;5119024;27;19918;-85
2023/06/25 00:43:03;;;;;;;;;;;16.50;99.90;;;;;;5101528;27;19916;-85
2023/06/25 00:45:29;;;;;;;;;;;16.40;99.90;;;;;;5101751;27;19915;-85
2023/06/25 00:47:55;;;;;;;;;;;16.40;99.90;;;;;;5102268;27;19922;-84
2023/06/25 00:50:21;;;;;;;;;;;16.40;99.90;;;;;;5119196;27;19911;-85
2023/06/25 00:52:51;;;;;;;;;;;16.40;99.90;;;;;;5096852;28;20316;-85
2023/06/25 00:55:17;;;;;;;;;;;16.30;99.90;;;;;;5118435;27;19907;-85
2023/06/25 00:57:43;;;;;;;;;;;16.30;99.90;;;;;;5118183;27;19911;-84
2023/06/25 01:00:16;;;;;;;;;;;16.20;99.90;;;;;;5100765;27;19946;-84
2023/06/25 01:02:50;;;;;;;;;;;16.20;99.90;;;;;;5101512;27;20006;-85
2023/06/25 01:05:19;;;;;;;;;;;16.20;99.90;;;;;;5100724;27;19915;-85
2023/06/25 01:07:45;;;;;;;;;;;16.10;99.90;;;;;;5101566;27;19911;-86
2023/06/25 01:10:11;;;;;;;;;;;16.10;99.90;;;;;;5118237;27;19916;-84
2023/06/25 01:12:43;;;;;;;;;;;16.00;99.90;;;;;;5101732;27;19911;-86
2023/06/25 01:15:36;;;;;;;;;;;16.00;99.90;;;;;;5118541;27;19915;-85
2023/06/25 01:18:02;;;;;;;;;;;15.90;99.90;;;;;;5136154;27;19912;-85
2023/06/25 01:20:28;;;;;;;;;;;15.90;99.90;;;;;;5102242;27;19915;-85
2023/06/25 01:22:55;;;;;;;;;;;15.90;99.90;;;;;;5102169;27;19915;-85
2023/06/25 01:25:20;;;;;;;;;;;15.80;99.90;;;;;;5102611;27;19965;-84
2023/06/25 01:27:50;;;;;;;;;;;15.80;99.90;;;;;;5116323;27;19936;-84
2023/06/25 01:30:17;;;;;;;;;;;15.80;99.90;;;;;;5136461;27;19955;-85
2023/06/25 01:32:44;;;;;;;;;;;15.70;99.90;;;;;;5119625;27;19911;-84
2023/06/25 01:35:13;;;;;;;;;;;15.70;99.90;;;;;;5133848;27;19963;-85
2023/06/25 01:38:01;;;;;;;;;;;15.60;99.90;;;;;;5104227;27;19997;-84
2023/06/25 01:40:27;;;;;;;;;;;15.60;99.90;;;;;;5152910;27;19911;-85
2023/06/25 01:42:52;;;;;;;;;;;15.50;99.90;;;;;;5121658;27;19921;-84
2023/06/25 01:45:19;;;;;;;;;;;15.50;99.90;;;;;;5103006;27;19915;-84
2023/06/25 01:47:44;;;;;;;;;;;15.50;99.90;;;;;;5102171;27;20391;-85
2023/06/25 01:50:10;;;;;;;;;;;15.40;99.90;;;;;;5102224;27;19955;-85
2023/06/25 01:52:36;;;;;;;;;;;15.40;99.90;;;;;;5099211;27;19916;-83
2023/06/25 01:55:01;;;;;;;;;;;15.40;99.90;;;;;;5112443;27;20318;-85
2023/06/25 01:57:27;;;;;;;;;;;15.40;99.90;;;;;;5118150;27;19915;-86
2023/06/25 01:59:53;;;;;;;;;;;15.30;99.90;;;;;;5117235;27;19941;-84
2023/06/25 02:02:18;;;;;;;;;;;15.30;99.90;;;;;;5099995;27;20416;-83
2023/06/25 02:04:44;;;;;;;;;;;15.20;99.90;;;;;;5116606;27;20378;-85
2023/06/25 02:07:10;;;;;;;;;;;15.20;99.90;;;;;;5117339;27;19919;-84
2023/06/25 02:09:37;;;;;;;;;;;15.20;99.90;;;;;;5116690;27;20021;-83
2023/06/25 02:12:03;;;;;;;;;;;15.10;99.90;;;;;;5100329;27;19959;-84
2023/06/25 02:14:29;;;;;;;;;;;15.10;99.90;;;;;;5099900;27;19919;-85
2023/06/25 02:16:55;;;;;;;;;;;15.10;99.90;;;;;;5099346;27;19907;-84
2023/06/25 02:19:20;;;;;;;;;;;15.00;99.90;;;;;;5100089;27;19919;-86
2023/06/25 02:21:46;;;;;;;;;;;15.00;99.90;;;;;;5117212;27;19923;-84
2023/06/25 02:24:11;;;;;;;;;;;15.00;99.90;;;;;;5099121;27;19918;-84
2023/06/25 02:26:37;;;;;;;;;;;14.90;99.90;;;;;;5099939;27;19950;-84
2023/06/25 02:29:02;;;;;;;;;;;14.90;99.90;;;;;;5099685;27;19912;-85
2023/06/25 02:31:29;;;;;;;;;;;14.90;99.90;;;;;;5099464;27;19907;-84
2023/06/25 02:33:54;;;;;;;;;;;14.90;99.90;;;;;;5099938;27;20374;-84
2023/06/25 02:36:20;;;;;;;;;;;14.80;99.90;;;;;;5099111;27;19911;-85
2023/06/25 02:38:46;;;;;;;;;;;14.80;99.90;;;;;;5099395;27;19912;-84
2023/06/25 02:41:11;;;;;;;;;;;14.90;99.90;;;;;;5098596;27;20256;-84
2023/06/25 02:43:37;;;;;;;;;;;14.80;99.90;;;;;;5115926;27;19911;-84
2023/06/25 02:46:02;;;;;;;;;;;14.80;99.90;;;;;;5098518;27;19921;-84
2023/06/25 02:48:28;;;;;;;;;;;14.80;99.90;;;;;;5115687;27;20002;-84
2023/06/25 02:50:54;;;;;;;;;;;14.80;99.90;;;;;;5098438;27;19916;-85
2023/06/25 02:53:19;;;;;;;;;;;14.80;99.90;;;;;;5098543;27;20282;-84
2023/06/25 02:55:45;;;;;;;;;;;14.70;99.90;;;;;;5098639;27;19916;-84
2023/06/25 02:58:11;;;;;;;;;;;14.70;99.90;;;;;;5115527;27;20332;-84
2023/06/25 03:00:37;;;;;;;;;;;14.80;99.90;;;;;;5099330;27;20337;-84
2023/06/25 03:03:02;;;;;;;;;;;14.80;99.90;;;;;;5134880;27;19912;-84
2023/06/25 03:05:29;;;;;;;;;;;14.80;99.90;;;;;;5098531;27;19915;-84
2023/06/25 03:07:56;;;;;;;;;;;14.80;99.90;;;;;;5098958;27;19915;-84
2023/06/25 03:10:23;;;;;;;;;;;14.90;99.90;;;;;;5098075;27;20270;-84
2023/06/25 03:12:49;;;;;;;;;;;14.90;99.90;;;;;;5098899;27;19915;-84
2023/06/25 03:15:14;;;;;;;;;;;15.00;99.90;;;;;;5098635;27;20040;-84
2023/06/25 03:17:43;;;;;;;;;;;15.00;99.90;;;;;;5116276;27;19912;-84
2023/06/25 03:20:09;;;;;;;;;;;15.10;99.90;;;;;;5115003;27;20293;-82
2023/06/25 03:22:35;;;;;;;;;;;15.10;99.90;;;;;;5099315;28;20006;-82
2023/06/25 03:25:02;;;;;;;;;;;15.20;99.90;;;;;;5098088;28;19911;-82
2023/06/25 03:27:29;;;;;;;;;;;15.30;99.90;;;;;;5098209;28;19911;-82
2023/06/25 03:29:56;;;;;;;;;;;15.30;99.90;;;;;;5115065;28;19911;-82
2023/06/25 03:32:53;;;;;;;;;;;15.30;99.90;;;;;;5098352;28;19931;-82
2023/06/25 03:35:20;;;;;;;;;;;15.50;99.90;;;;;;5112473;28;19911;-82
2023/06/25 03:37:45;;;;;;;;;;;15.50;99.90;;;;;;5097900;28;19915;-82
2023/06/25 03:40:12;;;;;;;;;;;15.40;99.90;;;;;;5098189;28;20369;-82
2023/06/25 03:42:38;;;;;;;;;;;15.40;99.90;;;;;;5097678;28;19919;-82
2023/06/25 03:45:05;;;;;;;;;;;15.40;99.90;;;;;;5115081;28;19919;-82
2023/06/25 03:47:31;;;;;;;;;;;15.40;99.90;;;;;;5115299;28;19919;-82
2023/06/25 03:49:57;;;;;;;;;;;15.40;99.90;;;;;;5098150;28;19956;-82
2023/06/25 03:52:22;;;;;;;;;;;15.50;99.90;;;;;;5098132;28;19922;-82
2023/06/25 03:54:48;;;;;;;;;;;15.50;99.90;;;;;;5114897;28;19915;-82
2023/06/25 03:57:14;;;;;;;;;;;15.60;99.90;;;;;;5098343;28;19915;-82
2023/06/25 03:59:40;;;;;;;;;;;15.60;99.90;;;;;;5098873;28;20022;-81
2023/06/25 04:02:05;;;;;;;;;;;15.70;99.90;;;;;;5098170;28;20692;-82
2023/06/25 04:04:31;;;;;;;;;;;15.80;99.90;;;;;;5117370;28;19916;-82
2023/06/25 04:07:12;;;;;;;;;;;15.90;99.90;;;;;;5116509;28;19966;-82
2023/06/25 04:09:38;;;;;;;;;;;15.90;99.90;;;;;;5098967;28;19911;-82
2023/06/25 04:12:03;;;;;;;;;;;15.90;99.90;;;;;;5106021;28;19922;-82
2023/06/25 04:14:29;;;;;;;;;;;15.90;99.90;;;;;;5098982;28;19915;-82
2023/06/25 04:16:55;;;;;;;;;;;15.90;99.90;;;;;;5098215;28;20346;-81
2023/06/25 04:19:21;;;;;;;;;;;15.90;99.90;;;;;;5114950;28;20081;-82
2023/06/25 04:21:46;;;;;;;;;;;16.00;99.90;;;;;;5097724;28;19915;-81
2023/06/25 04:24:30;;;;;;;;;;;16.10;99.90;;;;;;5114946;28;19912;-81
2023/06/25 04:26:56;;;;;;;;;;;16.10;99.90;;;;;;5108304;28;19919;-82
2023/06/25 04:29:21;;;;;;;;;;;16.20;99.90;;;;;;5113813;28;19919;-81
2023/06/25 04:31:47;;;;;;;;;;;16.30;99.90;;;;;;5114966;28;19912;-82
2023/06/25 04:34:13;;;;;;;;;;;16.30;99.90;;;;;;5098066;28;19970;-82
2023/06/25 04:36:42;;;;;;;;;;;16.40;99.90;;;;;;5098713;28;19912;-82
2023/06/25 04:39:08;;;;;;;;;;;16.50;99.90;;;;;;5098896;27;20389;-82
2023/06/25 04:41:35;;;;;;;;;;;16.50;99.90;;;;;;5118380;27;19907;-82
2023/06/25 04:44:01;;;;;;;;;;;16.60;99.90;;;;;;5118270;27;20541;-82
2023/06/25 04:46:27;;;;;;;;;;;16.60;99.90;;;;;;5117734;27;19916;-82
2023/06/25 04:48:52;;;;;;;;;;;16.70;99.90;;;;;;5101188;27;19911;-82
2023/06/25 04:51:18;;;;;;;;;;;16.80;99.90;;;;;;5118376;27;19912;-82
2023/06/25 04:53:44;;;;;;;;;;;16.90;99.90;;;;;;5118003;27;19919;-81
2023/06/25 04:56:09;;;;;;;;;;;17.00;99.90;;;;;;5101095;27;19961;-82
2023/06/25 04:58:35;;;;;;;;;;;17.10;99.90;;;;;;5100705;27;19915;-82
2023/06/25 05:01:02;;;;;;;;;;;17.20;99.90;;;;;;5136328;27;19913;-82
2023/06/25 05:03:28;;;;;;;;;;;17.30;99.90;;;;;;5093584;27;19920;-82
2023/06/25 05:05:54;;;;;;;;;;;17.40;99.90;;;;;;5113013;27;19915;-82
2023/06/25 05:08:20;;;;;;;;;;;17.50;99.90;;;;;;5111770;27;19919;-82
2023/06/25 05:10:46;;;;;;;;;;;17.50;99.90;;;;;;5100118;27;19916;-82
2023/06/25 05:13:11;;;;;;;;;;;17.60;99.90;;;;;;5114953;27;19911;-82
2023/06/25 05:15:41;;;;;;;;;;;17.60;99.90;;;;;;5095767;27;19959;-82
2023/06/25 05:18:07;;;;;;;;;;;17.70;99.90;;;;;;5106220;28;20014;-82
2023/06/25 05:20:35;;;;;;;;;;;17.70;99.90;;;;;;5126945;27;19923;-82
2023/06/25 05:23:05;;;;;;;;;;;17.90;99.90;;;;;;5099977;27;20370;-82
2023/06/25 05:25:31;;;;;;;;;;;18.00;99.90;;;;;;5132457;27;19915;-82
2023/06/25 05:27:57;;;;;;;;;;;18.10;99.90;;;;;;5090715;27;20375;-83
2023/06/25 05:30:23;;;;;;;;;;;18.20;99.90;;;;;;5097448;27;19916;-83
2023/06/25 05:32:48;;;;;;;;;;;18.30;99.90;;;;;;5110109;28;19919;-80
2023/06/25 05:35:14;;;;;;;;;;;18.40;99.90;;;;;;5112312;27;19939;-83
2023/06/25 05:37:39;;;;;;;;;;;18.50;99.90;;;;;;5097851;27;19923;-83
2023/06/25 05:40:05;;;;;;;;;;;18.50;99.90;;;;;;5109476;28;19912;-83
2023/06/25 05:42:31;;;;;;;;;;;18.60;99.90;;;;;;5128661;27;19914;-83
2023/06/25 05:44:57;;;;;;;;;;;18.70;99.90;;;;;;5110912;28;20359;-82
2023/06/25 05:47:22;;;;;;;;;;;18.80;99.90;;;;;;5094145;27;19947;-83
2023/06/25 05:49:48;;;;;;;;;;;18.90;99.90;;;;;;5112512;27;19919;-83
2023/06/25 05:52:14;;;;;;;;;;;19.00;99.90;;;;;;5114041;27;19912;-81
2023/06/25 05:54:39;;;;;;;;;;;19.10;99.90;;;;;;5115268;27;20656;-80
2023/06/25 05:57:05;;;;;;;;;;;19.10;99.90;;;;;;5087475;28;19911;-82
2023/06/25 05:59:31;;;;;;;;;;;19.20;99.90;;;;;;5116420;27;19970;-81
2023/06/25 06:01:56;;;;;;;;;;;19.30;99.90;;;;;;5127371;27;20009;-81
2023/06/25 06:04:22;;;;;;;;;;;19.40;99.90;;;;;;5110496;27;19915;-81
2023/06/25 06:06:48;;;;;;;;;;;19.50;99.90;;;;;;5095193;28;19920;-82
2023/06/25 06:09:13;;;;;;;;;;;19.50;99.90;;;;;;5102979;27;19918;-81
2023/06/25 06:11:39;;;;;;;;;;;19.60;99.90;;;;;;5110147;27;20375;-82
2023/06/25 06:14:05;;;;;;;;;;;19.70;99.90;;;;;;5090684;28;20426;-83
2023/06/25 06:16:31;;;;;;;;;;;19.70;99.90;;;;;;5119552;27;19960;-82
2023/06/25 06:18:57;;;;;;;;;;;19.80;99.90;;;;;;5092744;28;19924;-82
2023/06/25 06:21:22;;;;;;;;;;;19.90;99.90;;;;;;5112979;27;19916;-82
2023/06/25 06:23:48;;;;;;;;;;;20.00;99.90;;;;;;5110423;27;19938;-82
2023/06/25 06:26:15;;;;;;;;;;;20.00;99.90;;;;;;5087225;28;19919;-82
2023/06/25 06:28:41;;;;;;;;;;;20.00;99.90;;;;;;5112408;27;20386;-82
2023/06/25 06:31:07;;;;;;;;;;;20.10;99.90;;;;;;5092729;27;20028;-82
2023/06/25 06:33:32;;;;;;;;;;;20.20;99.90;;;;;;5132902;27;19911;-81
2023/06/25 06:35:58;;;;;;;;;;;20.30;99.90;;;;;;5104835;27;19908;-82
2023/06/25 06:38:24;;;;;;;;;;;20.40;99.90;;;;;;5099439;27;19972;-81
2023/06/25 06:40:49;;;;;;;;;;;20.50;99.90;;;;;;5116294;27;19957;-81
2023/06/25 06:43:15;;;;;;;;;;;20.60;99.90;;;;;;5099283;27;19919;-81
2023/06/25 06:45:40;;;;;;;;;;;20.70;99.90;;;;;;5134549;27;19927;-82
2023/06/25 06:48:06;;;;;;;;;;;20.70;99.90;;;;;;5099128;27;19954;-81
2023/06/25 06:50:31;;;;;;;;;;;20.80;99.90;;;;;;5122584;27;19911;-82
2023/06/25 06:52:57;;;;;;;;;;;20.90;99.90;;;;;;5118596;27;19912;-82
2023/06/25 06:55:29;;;;;;;;;;;21.00;99.90;;;;;;5115157;27;20382;-82
2023/06/25 06:57:54;;;;;;;;;;;21.00;99.90;;;;;;5133825;27;20351;-81
2023/06/25 07:00:20;;;;;;;;;;;21.10;99.90;;;;;;5115477;27;19911;-82
2023/06/25 07:02:45;;;;;;;;;;;21.20;99.90;;;;;;5097952;27;20616;-82
2023/06/25 07:05:12;;;;;;;;;;;21.30;99.90;;;;;;5097941;27;20099;-82
2023/06/25 07:07:38;;;;;;;;;;;21.30;99.90;;;;;;5099191;27;19998;-82
2023/06/25 07:10:04;;;;;;;;;;;21.50;99.90;;;;;;5099088;27;19915;-82
2023/06/25 07:12:29;;;;;;;;;;;22.10;99.90;;;;;;5115599;27;19911;-82
2023/06/25 07:14:55;;;;;;;;;;;23.50;99.90;;;;;;5114767;27;19915;-82
2023/06/25 07:17:21;;;;;;;;;;;25.00;97.00;;;;;;5098544;28;19958;-82
2023/06/25 07:19:46;;;;;;;;;;;26.40;93.40;;;;;;5098183;28;20290;-82
2023/06/25 07:22:13;;;;;;;;;;;27.30;91.00;;;;;;5099045;28;19933;-83
2023/06/25 07:24:38;;;;;;;;;;;28.20;87.10;;;;;;5115079;28;20275;-83
2023/06/25 07:27:04;;;;;;;;;;;29.00;83.40;;;;;;5115201;28;19935;-83
2023/06/25 07:29:30;;;;;;;;;;;29.40;77.90;;;;;;5098572;28;19918;-82
2023/06/25 07:31:58;;;;;;;;;;;29.90;75.50;;;;;;5116583;28;19918;-83
2023/06/25 07:34:24;;;;;;;;;;;30.50;73.10;;;;;;5099022;28;19911;-82
2023/06/25 07:36:49;;;;;;;;;;;30.60;69.30;;;;;;5120924;28;19919;-82
2023/06/25 07:39:24;;;;;;;;;;;30.60;70.10;;;;;;5106969;28;19916;-82
2023/06/25 07:41:49;;;;;;;;;;;30.30;67.90;;;;;;5106478;28;19923;-82
2023/06/25 07:44:15;;;;;;;;;;;29.10;67.90;;;;;;5108463;28;19912;-81
2023/06/25 07:46:40;;;;;;;;;;;28.20;70.10;;;;;;5118674;28;20006;-82
2023/06/25 07:49:06;;;;;;;;;;;26.70;70.90;;;;;;5100464;28;19912;-82
2023/06/25 07:51:32;;;;;;;;;;;25.40;75.50;;;;;;5117712;28;19918;-82
2023/06/25 07:53:57;;;;;;;;;;;24.70;79.40;;;;;;5100349;28;19915;-83
2023/06/25 07:56:23;;;;;;;;;;;24.20;79.40;;;;;;5116960;28;19912;-82
2023/06/25 07:58:48;;;;;;;;;;;23.90;80.30;;;;;;5116454;28;19911;-82
2023/06/25 08:01:14;;;;;;;;;;;24.10;81.70;;;;;;5099315;28;19916;-83
2023/06/25 08:03:39;;;;;;;;;;;25.60;79.10;;;;;;5099051;28;19908;-83
2023/06/25 08:06:06;;;;;;;;;;;27.50;74.60;;;;;;5114958;28;19919;-83
2023/06/25 08:08:34;;;;;;;;;;;29.30;70.40;;;;;;5097591;28;20568;-82
2023/06/25 08:11:00;;;;;;;;;;;30.30;69.30;;;;;;5114337;28;19912;-82
2023/06/25 08:13:26;;;;;;;;;;;30.90;65.00;;;;;;5097542;28;20006;-83
2023/06/25 08:15:51;;;;;;;;;;;30.70;63.60;;;;;;5118471;27;20534;-82
2023/06/25 08:18:17;;;;;;;;;;;30.20;62.70;;;;;;5101630;27;19911;-83
2023/06/25 08:20:43;;;;;;;;;;;30.60;64.50;;;;;;5118782;27;19907;-83
2023/06/25 08:23:21;;;;;;;;;;;30.70;60.70;;;;;;5101248;27;19995;-83
2023/06/25 08:25:47;;;;;;;;;;;30.30;64.60;;;;;;5111504;27;19963;-82
2023/06/25 08:28:13;;;;;;;;;;;29.40;65.80;;;;;;5118575;27;20450;-83
2023/06/25 08:30:39;;;;;;;;;;;29.90;63.70;;;;;;5101098;27;20030;-83
2023/06/25 08:33:05;;;;;;;;;;;30.70;62.40;;;;;;5118095;27;19916;-83
2023/06/25 08:35:30;;;;;;;;;;;31.10;62.30;;;;;;5101463;27;19930;-83
2023/06/25 08:37:56;;;;;;;;;;;32.10;60.60;;;;;;5101243;27;19915;-83
2023/06/25 08:40:21;;;;;;;;;;;31.90;59.60;;;;;;5117990;27;19911;-83
2023/06/25 08:42:47;;;;;;;;;;;32.40;59.90;;;;;;5100821;27;19918;-83
2023/06/25 08:45:13;;;;;;;;;;;33.40;58.20;;;;;;5118512;27;20429;-83
2023/06/25 08:47:39;;;;;;;;;;;34.10;57.00;;;;;;5100913;27;19922;-83
2023/06/25 08:50:06;;;;;;;;;;;33.70;54.30;;;;;;5118498;27;19916;-83
2023/06/25 08:52:33;;;;;;;;;;;33.80;54.30;;;;;;5101315;27;19919;-83
2023/06/25 08:54:59;;;;;;;;;;;33.60;56.50;;;;;;5118773;27;19911;-83
2023/06/25 08:57:25;;;;;;;;;;;33.40;55.70;;;;;;5101038;27;19915;-83
2023/06/25 08:59:50;;;;;;;;;;;33.40;55.20;;;;;;5101502;27;19911;-82
2023/06/25 09:02:16;;;;;;;;;;;32.00;55.90;;;;;;5117992;27;19915;-82
2023/06/25 09:04:43;;;;;;;;;;;30.90;56.50;;;;;;5100770;27;20004;-84
2023/06/25 09:07:11;;;;;;;;;;;31.10;56.80;;;;;;5100725;27;19923;-83
2023/06/25 09:09:37;;;;;;;;;;;31.60;56.60;;;;;;5118050;27;19950;-83
2023/06/25 09:12:03;;;;;;;;;;;32.00;57.10;;;;;;5117335;27;19976;-83
2023/06/25 09:14:32;;;;;;;;;;;32.70;56.30;;;;;;5100534;27;19928;-83
2023/06/25 09:16:58;;;;;;;;;;;32.60;55.00;;;;;;5099776;27;19919;-84
2023/06/25 09:19:23;;;;;;;;;;;32.30;56.70;;;;;;5101197;27;20290;-83
2023/06/25 09:21:49;;;;;;;;;;;31.20;57.90;;;;;;5117422;27;19922;-83
2023/06/25 09:24:16;;;;;;;;;;;30.40;58.90;;;;;;5117533;27;19915;-83
2023/06/25 09:26:51;;;;;;;;;;;29.70;60.20;;;;;;5098639;27;19921;-81
2023/06/25 09:29:18;;;;;;;;;;;29.00;60.80;;;;;;5114549;27;19951;-82
2023/06/25 09:31:44;;;;;;;;;;;28.50;60.90;;;;;;5118736;27;19915;-83
2023/06/25 09:34:13;;;;;;;;;;;29.00;61.30;;;;;;5116879;27;20561;-83
2023/06/25 09:36:39;;;;;;;;;;;30.40;59.40;;;;;;5099938;27;19912;-84
2023/06/25 09:39:05;;;;;;;;;;;31.40;59.20;;;;;;5117505;27;19964;-84
2023/06/25 09:41:35;;;;;;;;;;;30.60;59.70;;;;;;5100632;27;20620;-83
2023/06/25 09:44:04;;;;;;;;;;;30.80;57.90;;;;;;5092772;28;19912;-83
2023/06/25 09:46:31;;;;;;;;;;;31.00;59.70;;;;;;5097167;27;19937;-83
2023/06/25 09:48:58;;;;;;;;;;;31.80;57.10;;;;;;5145086;27;19960;-84
2023/06/25 09:51:28;;;;;;;;;;;32.60;56.50;;;;;;5096645;27;19960;-84
2023/06/25 09:53:54;;;;;;;;;;;33.30;54.60;;;;;;5118516;27;19915;-83
2023/06/25 09:56:21;;;;;;;;;;;32.90;55.30;;;;;;5125284;27;19911;-83
2023/06/25 09:58:47;;;;;;;;;;;32.00;56.70;;;;;;5093827;27;20357;-83
2023/06/25 10:01:13;;;;;;;;;;;31.80;56.90;;;;;;5098137;27;19915;-83
2023/06/25 10:03:39;;;;;;;;;;;32.20;56.60;;;;;;5092556;27;20347;-83
2023/06/25 10:06:05;;;;;;;;;;;31.80;56.60;;;;;;5089296;28;19920;-82
2023/06/25 10:08:32;;;;;;;;;;;31.30;56.70;;;;;;5106772;27;19941;-83
2023/06/25 10:10:59;;;;;;;;;;;31.50;55.90;;;;;;5103837;27;20010;-82
2023/06/25 10:13:25;;;;;;;;;;;32.20;55.20;;;;;;5110004;27;19962;-83
2023/06/25 10:16:01;;;;;;;;;;;32.50;55.60;;;;;;5085098;28;20270;-82
2023/06/25 10:18:30;;;;;;;;;;;32.20;54.70;;;;;;5104719;27;19919;-83
2023/06/25 10:20:57;;;;;;;;;;;32.10;55.70;;;;;;5092909;27;19911;-82
2023/06/25 10:23:23;;;;;;;;;;;31.70;55.40;;;;;;5104394;27;19919;-83
2023/06/25 10:25:52;;;;;;;;;;;31.30;55.60;;;;;;5109519;27;19920;-83
2023/06/25 10:28:18;;;;;;;;;;;30.40;57.90;;;;;;5123278;27;19911;-83
2023/06/25 10:30:48;;;;;;;;;;;30.10;59.40;;;;;;5113313;27;20002;-83
2023/06/25 10:33:15;;;;;;;;;;;29.80;59.60;;;;;;5085116;28;19911;-82
2023/06/25 10:35:42;;;;;;;;;;;29.80;57.10;;;;;;5106489;27;20370;-84
2023/06/25 10:38:07;;;;;;;;;;;30.00;59.60;;;;;;5123956;27;19970;-83
2023/06/25 10:40:37;;;;;;;;;;;30.20;58.30;;;;;;5090914;27;19918;-84
2023/06/25 10:43:03;;;;;;;;;;;30.50;58.80;;;;;;5126338;27;20370;-83
2023/06/25 10:45:28;;;;;;;;;;;30.50;58.70;;;;;;5109319;27;20010;-83
2023/06/25 10:48:12;;;;;;;;;;;30.50;58.60;;;;;;5085596;28;19915;-83
2023/06/25 10:50:38;;;;;;;;;;;30.40;59.60;;;;;;5126131;27;19911;-83
2023/06/25 10:53:09;;;;;;;;;;;30.20;58.20;;;;;;5110200;27;19915;-83
2023/06/25 10:55:34;;;;;;;;;;;30.30;56.90;;;;;;5098702;27;19964;-83
2023/06/25 10:58:00;;;;;;;;;;;30.50;56.90;;;;;;5101359;28;20003;-84
2023/06/25 11:00:27;;;;;;;;;;;30.50;55.90;;;;;;5113048;27;19911;-82
2023/06/25 11:02:54;;;;;;;;;;;30.70;56.10;;;;;;5114935;27;19984;-83
2023/06/25 11:05:23;;;;;;;;;;;30.80;54.80;;;;;;5098344;27;20468;-82
2023/06/25 11:07:53;;;;;;;;;;;30.80;55.50;;;;;;5095307;28;19911;-83
2023/06/25 11:10:21;;;;;;;;;;;31.00;56.50;;;;;;5115489;27;19911;-83
2023/06/25 11:12:46;;;;;;;;;;;31.20;58.00;;;;;;5097884;27;19911;-82
2023/06/25 11:15:12;;;;;;;;;;;31.00;58.10;;;;;;5115394;27;19922;-82
2023/06/25 11:17:37;;;;;;;;;;;31.00;57.60;;;;;;5098197;28;20358;-82
2023/06/25 11:20:03;;;;;;;;;;;30.40;57.50;;;;;;5098281;27;19920;-83
2023/06/25 11:22:29;;;;;;;;;;;30.70;59.30;;;;;;5098115;28;19911;-83
2023/06/25 11:24:56;;;;;;;;;;;30.90;59.00;;;;;;5098523;28;20453;-83
2023/06/25 11:27:25;;;;;;;;;;;31.00;57.80;;;;;;5098062;28;19922;-83
2023/06/25 11:29:51;;;;;;;;;;;30.70;58.10;;;;;;5115079;28;20417;-83
2023/06/25 11:32:21;;;;;;;;;;;30.90;57.90;;;;;;5115391;28;19912;-83
2023/06/25 11:38:28;;;;;;;;;;;30.60;58.00;;;;;;5129932;28;19992;-84
2023/06/25 11:40:56;;;;;;;;;;;30.70;59.50;;;;;;5125831;28;20243;-83
2023/06/25 11:43:22;;;;;;;;;;;30.70;59.30;;;;;;5089136;28;19959;-83
2023/06/25 11:45:48;;;;;;;;;;;30.80;58.50;;;;;;5115161;28;19962;-83
2023/06/25 11:48:15;;;;;;;;;;;30.80;58.20;;;;;;5129011;27;19919;-84
2023/06/25 11:50:44;;;;;;;;;;;30.80;58.70;;;;;;5110927;27;19912;-84
2023/06/25 11:53:10;;;;;;;;;;;30.40;58.80;;;;;;5115137;27;19918;-83
2023/06/25 11:55:36;;;;;;;;;;;29.70;59.20;;;;;;5110867;27;19911;-83
2023/06/25 11:58:01;;;;;;;;;;;29.60;59.10;;;;;;5099123;27;19916;-84
2023/06/25 12:00:27;;;;;;;;;;;29.60;59.30;;;;;;5097336;27;19912;-83
2023/06/25 12:02:52;;;;;;;;;;;29.50;59.70;;;;;;5116669;27;19911;-83
2023/06/25 12:05:18;;;;;;;;;;;29.80;58.80;;;;;;5107237;27;19912;-84
2023/06/25 12:07:45;;;;;;;;;;;30.10;59.50;;;;;;5105868;27;20401;-84
2023/06/25 12:10:11;;;;;;;;;;;30.40;58.70;;;;;;5109477;28;19912;-85
2023/06/25 12:12:36;;;;;;;;;;;30.10;59.00;;;;;;5122245;27;20366;-84
2023/06/25 12:15:03;;;;;;;;;;;30.20;62.10;;;;;;5119384;27;20428;-83
2023/06/25 12:17:28;;;;;;;;;;;30.30;58.10;;;;;;5111844;27;19912;-83
2023/06/25 12:19:54;;;;;;;;;;;30.00;59.10;;;;;;5100778;27;19955;-83
2023/06/25 12:22:19;;;;;;;;;;;30.50;59.10;;;;;;5124585;27;19912;-83
2023/06/25 12:24:45;;;;;;;;;;;30.90;58.90;;;;;;5109092;27;20075;-83
2023/06/25 12:27:11;;;;;;;;;;;31.00;59.10;;;;;;5110364;28;19954;-83
2023/06/25 12:29:36;;;;;;;;;;;30.90;58.40;;;;;;5089960;27;19927;-83
2023/06/25 12:32:02;;;;;;;;;;;31.10;57.90;;;;;;5106113;27;19934;-83
2023/06/25 12:34:28;;;;;;;;;;;30.70;59.20;;;;;;5091003;27;19919;-83
2023/06/25 12:36:54;;;;;;;;;;;31.30;58.20;;;;;;5109802;27;19911;-83
2023/06/25 12:39:19;;;;;;;;;;;31.70;57.70;;;;;;5112075;27;20008;-84
2023/06/25 12:41:45;;;;;;;;;;;32.00;57.40;;;;;;5121383;27;19998;-84
2023/06/25 12:44:11;;;;;;;;;;;32.40;57.10;;;;;;5088806;27;19922;-84
2023/06/25 12:46:36;;;;;;;;;;;32.80;57.30;;;;;;5098017;27;19943;-84
2023/06/25 12:49:02;;;;;;;;;;;33.10;55.70;;;;;;5122636;27;20028;-84
2023/06/25 12:51:27;;;;;;;;;;;33.10;56.40;;;;;;5132290;27;19940;-84
2023/06/25 12:53:53;;;;;;;;;;;33.30;56.30;;;;;;5115079;27;20282;-84
2023/06/25 12:56:19;;;;;;;;;;;33.20;55.10;;;;;;5113773;27;19998;-84
2023/06/25 12:58:44;;;;;;;;;;;33.70;55.70;;;;;;5114811;27;20466;-84
2023/06/25 13:01:14;;;;;;;;;;;33.60;54.40;;;;;;5110455;27;20353;-83
2023/06/25 13:03:40;;;;;;;;;;;33.40;54.80;;;;;;5111295;27;19956;-84
2023/06/25 13:06:05;;;;;;;;;;;33.80;54.90;;;;;;5108055;27;19923;-84
2023/06/25 13:08:31;;;;;;;;;;;33.70;54.80;;;;;;5129365;27;19916;-84
2023/06/25 13:10:57;;;;;;;;;;;33.90;55.00;;;;;;5114552;27;19916;-84
2023/06/25 13:13:22;;;;;;;;;;;34.00;53.60;;;;;;5101966;27;19911;-84
2023/06/25 13:15:48;;;;;;;;;;;34.40;53.50;;;;;;5131539;27;20052;-84
2023/06/25 13:18:14;;;;;;;;;;;34.80;53.00;;;;;;5084396;28;19965;-84
2023/06/25 13:20:39;;;;;;;;;;;34.70;53.20;;;;;;5112144;27;19918;-84
2023/06/25 13:23:05;;;;;;;;;;;34.10;54.90;;;;;;5123454;27;19919;-84
2023/06/25 13:25:30;;;;;;;;;;;34.10;54.40;;;;;;5131004;27;19931;-84
2023/06/25 13:27:56;;;;;;;;;;;34.40;53.90;;;;;;5109722;27;19919;-84
2023/06/25 13:30:25;;;;;;;;;;;34.50;53.10;;;;;;5131914;27;19911;-84
2023/06/25 13:32:51;;;;;;;;;;;34.90;53.60;;;;;;5100221;27;19994;-84
2023/06/25 13:35:16;;;;;;;;;;;35.00;53.60;;;;;;5116231;27;20003;-84
2023/06/25 13:37:42;;;;;;;;;;;34.70;53.30;;;;;;5116874;27;19912;-84
2023/06/25 13:40:07;;;;;;;;;;;35.00;53.20;;;;;;5099126;27;19963;-83
2023/06/25 13:42:33;;;;;;;;;;;35.20;53.60;;;;;;5117408;27;19960;-83
2023/06/25 13:44:59;;;;;;;;;;;35.30;53.30;;;;;;5099813;27;20263;-84
2023/06/25 13:47:24;;;;;;;;;;;35.30;53.30;;;;;;5117211;27;19987;-84
2023/06/25 13:49:50;;;;;;;;;;;34.70;55.40;;;;;;5099687;27;19916;-84
2023/06/25 13:52:15;;;;;;;;;;;34.60;53.10;;;;;;5098463;27;19998;-84
2023/06/25 13:54:41;;;;;;;;;;;34.40;54.40;;;;;;5116784;27;19915;-83
2023/06/25 13:57:07;;;;;;;;;;;34.00;53.90;;;;;;5116855;27;19915;-83
2023/06/25 13:59:32;;;;;;;;;;;33.10;56.50;;;;;;5116182;27;19912;-83
2023/06/25 14:01:58;;;;;;;;;;;33.40;55.00;;;;;;5135523;27;19918;-84
2023/06/25 14:04:23;;;;;;;;;;;33.50;55.00;;;;;;5099466;27;19911;-84
2023/06/25 14:06:50;;;;;;;;;;;33.60;53.90;;;;;;5099530;27;19923;-84
2023/06/25 14:09:15;;;;;;;;;;;34.10;53.90;;;;;;5106126;27;19916;-83
2023/06/25 14:11:41;;;;;;;;;;;34.60;53.80;;;;;;5116647;27;19958;-84
2023/06/25 14:14:07;;;;;;;;;;;33.90;52.60;;;;;;5115932;27;19916;-83
2023/06/25 14:16:32;;;;;;;;;;;34.20;53.80;;;;;;5116543;27;19912;-84